sensor_id;sensor_type;location;lat;lon;timestamp;temperature;humidity
78619;DHT22;67941;52.506;5.470;2023-04-16T00:00:08;8.60;74.10
78619;DHT22;67941;52.506;5.470;2023-04-16T00:02:38;8.60;74.10
78619;DHT22;67941;52.506;5.470;2023-04-16T00:05:07;8.60;74.10
78619;DHT22;67941;52.506;5.470;2023-04-16T00:07:36;8.70;74.10
78619;DHT22;67941;52.506;5.470;2023-04-16T00:10:09;8.70;74.20
78619;DHT22;67941;52.506;5.470;2023-04-16T00:12:38;8.70;74.30
78619;DHT22;67941;52.506;5.470;2023-04-16T00:15:08;8.70;74.20
78619;DHT22;67941;52.506;5.470;2023-04-16T00:17:36;8.80;74.20
78619;DHT22;67941;52.506;5.470;2023-04-16T00:20:06;8.70;74.30
78619;DHT22;67941;52.506;5.470;2023-04-16T00:22:36;8.80;74.30
78619;DHT22;67941;52.506;5.470;2023-04-16T00:25:06;8.80;74.30
78619;DHT22;67941;52.506;5.470;2023-04-16T00:27:37;8.80;74.40
78619;DHT22;67941;52.506;5.470;2023-04-16T00:30:07;8.80;74.30
78619;DHT22;67941;52.506;5.470;2023-04-16T00:32:36;8.80;74.30
78619;DHT22;67941;52.506;5.470;2023-04-16T00:35:06;8.80;74.40
78619;DHT22;67941;52.506;5.470;2023-04-16T00:37:35;8.80;74.40
78619;DHT22;67941;52.506;5.470;2023-04-16T00:40:05;8.80;74.40
78619;DHT22;67941;52.506;5.470;2023-04-16T00:42:37;8.80;74.40
78619;DHT22;67941;52.506;5.470;2023-04-16T00:45:07;8.80;74.50
78619;DHT22;67941;52.506;5.470;2023-04-16T00:47:37;8.80;74.50
78619;DHT22;67941;52.506;5.470;2023-04-16T00:50:07;8.80;74.50
78619;DHT22;67941;52.506;5.470;2023-04-16T00:52:36;8.80;74.50
78619;DHT22;67941;52.506;5.470;2023-04-16T00:55:06;8.80;74.60
78619;DHT22;67941;52.506;5.470;2023-04-16T00:57:40;8.80;74.50
78619;DHT22;67941;52.506;5.470;2023-04-16T01:00:10;8.80;74.50
78619;DHT22;67941;52.506;5.470;2023-04-16T01:02:39;8.80;74.60
78619;DHT22;67941;52.506;5.470;2023-04-16T01:05:08;8.80;74.60
78619;DHT22;67941;52.506;5.470;2023-04-16T01:07:37;8.80;74.60
78619;DHT22;67941;52.506;5.470;2023-04-16T01:10:07;8.80;74.70
78619;DHT22;67941;52.506;5.470;2023-04-16T01:12:36;8.80;74.60
78619;DHT22;67941;52.506;5.470;2023-04-16T01:15:08;8.80;74.70
78619;DHT22;67941;52.506;5.470;2023-04-16T01:17:37;8.80;74.80
78619;DHT22;67941;52.506;5.470;2023-04-16T01:20:06;8.80;74.80
78619;DHT22;67941;52.506;5.470;2023-04-16T01:22:38;8.80;74.70
78619;DHT22;67941;52.506;5.470;2023-04-16T01:25:07;8.80;74.70
78619;DHT22;67941;52.506;5.470;2023-04-16T01:27:36;8.70;74.70
78619;DHT22;67941;52.506;5.470;2023-04-16T01:30:06;8.70;74.80
78619;DHT22;67941;52.506;5.470;2023-04-16T01:32:49;8.70;74.80
78619;DHT22;67941;52.506;5.470;2023-04-16T01:35:17;8.70;74.90
78619;DHT22;67941;52.506;5.470;2023-04-16T01:37:49;8.70;74.90
78619;DHT22;67941;52.506;5.470;2023-04-16T01:40:18;8.70;74.90
78619;DHT22;67941;52.506;5.470;2023-04-16T01:43:05;8.80;74.90
78619;DHT22;67941;52.506;5.470;2023-04-16T01:45:34;8.80;74.90
78619;DHT22;67941;52.506;5.470;2023-04-16T01:48:04;8.70;74.90
78619;DHT22;67941;52.506;5.470;2023-04-16T01:50:33;8.70;75.00
78619;DHT22;67941;52.506;5.470;2023-04-16T01:53:05;8.80;75.00
78619;DHT22;67941;52.506;5.470;2023-04-16T01:55:34;8.80;75.00
78619;DHT22;67941;52.506;5.470;2023-04-16T01:58:03;8.80;75.00
78619;DHT22;67941;52.506;5.470;2023-04-16T02:00:35;8.80;75.00
78619;DHT22;67941;52.506;5.470;2023-04-16T02:03:04;8.80;75.10
78619;DHT22;67941;52.506;5.470;2023-04-16T02:05:33;8.80;75.10
78619;DHT22;67941;52.506;5.470;2023-04-16T02:08:01;8.80;75.10
78619;DHT22;67941;52.506;5.470;2023-04-16T02:10:33;8.80;75.10
78619;DHT22;67941;52.506;5.470;2023-04-16T02:13:02;8.80;75.10
78619;DHT22;67941;52.506;5.470;2023-04-16T02:15:31;8.80;75.20
78619;DHT22;67941;52.506;5.470;2023-04-16T02:18:00;8.80;75.20
78619;DHT22;67941;52.506;5.470;2023-04-16T02:20:29;8.80;75.20
78619;DHT22;67941;52.506;5.470;2023-04-16T02:22:59;8.80;75.20
78619;DHT22;67941;52.506;5.470;2023-04-16T02:25:28;8.80;75.20
78619;DHT22;67941;52.506;5.470;2023-04-16T02:28:00;8.80;75.30
78619;DHT22;67941;52.506;5.470;2023-04-16T02:30:40;8.80;75.20
78619;DHT22;67941;52.506;5.470;2023-04-16T02:33:11;8.80;75.30
78619;DHT22;67941;52.506;5.470;2023-04-16T02:35:50;8.80;75.30
78619;DHT22;67941;52.506;5.470;2023-04-16T02:38:19;8.80;75.30
78619;DHT22;67941;52.506;5.470;2023-04-16T02:40:48;8.80;75.20
78619;DHT22;67941;52.506;5.470;2023-04-16T02:43:19;8.80;75.40
78619;DHT22;67941;52.506;5.470;2023-04-16T02:45:48;8.80;75.40
78619;DHT22;67941;52.506;5.470;2023-04-16T02:48:17;8.80;75.40
78619;DHT22;67941;52.506;5.470;2023-04-16T02:50:46;8.80;75.40
78619;DHT22;67941;52.506;5.470;2023-04-16T02:53:15;8.80;75.40
78619;DHT22;67941;52.506;5.470;2023-04-16T02:55:49;8.80;75.40
78619;DHT22;67941;52.506;5.470;2023-04-16T02:58:24;8.80;75.40
78619;DHT22;67941;52.506;5.470;2023-04-16T03:00:53;8.80;75.40
78619;DHT22;67941;52.506;5.470;2023-04-16T03:03:23;8.80;75.50
78619;DHT22;67941;52.506;5.470;2023-04-16T03:05:51;8.80;75.40
78619;DHT22;67941;52.506;5.470;2023-04-16T03:08:20;8.90;75.50
78619;DHT22;67941;52.506;5.470;2023-04-16T03:10:49;8.90;75.50
78619;DHT22;67941;52.506;5.470;2023-04-16T03:13:21;8.90;75.50
78619;DHT22;67941;52.506;5.470;2023-04-16T03:15:49;8.90;75.40
78619;DHT22;67941;52.506;5.470;2023-04-16T03:18:18;8.90;75.50
78619;DHT22;67941;52.506;5.470;2023-04-16T03:20:51;8.90;75.40
78619;DHT22;67941;52.506;5.470;2023-04-16T03:23:19;8.90;75.40
78619;DHT22;67941;52.506;5.470;2023-04-16T03:25:49;8.90;75.50
78619;DHT22;67941;52.506;5.470;2023-04-16T03:28:20;8.90;75.40
78619;DHT22;67941;52.506;5.470;2023-04-16T03:30:51;8.90;75.50
78619;DHT22;67941;52.506;5.470;2023-04-16T03:33:21;8.90;75.40
78619;DHT22;67941;52.506;5.470;2023-04-16T03:35:55;8.90;75.40
78619;DHT22;67941;52.506;5.470;2023-04-16T03:38:27;8.90;75.50
78619;DHT22;67941;52.506;5.470;2023-04-16T03:40:58;8.90;75.50
78619;DHT22;67941;52.506;5.470;2023-04-16T03:43:32;8.90;75.50
78619;DHT22;67941;52.506;5.470;2023-04-16T03:46:01;8.90;75.50
78619;DHT22;67941;52.506;5.470;2023-04-16T03:48:30;8.90;75.50
78619;DHT22;67941;52.506;5.470;2023-04-16T03:50:59;8.90;75.50
78619;DHT22;67941;52.506;5.470;2023-04-16T03:53:28;8.90;75.50
78619;DHT22;67941;52.506;5.470;2023-04-16T03:55:57;9.00;75.50
78619;DHT22;67941;52.506;5.470;2023-04-16T03:58:27;9.00;75.50
78619;DHT22;67941;52.506;5.470;2023-04-16T04:00:58;9.00;75.50
78619;DHT22;67941;52.506;5.470;2023-04-16T04:03:27;9.00;75.60
78619;DHT22;67941;52.506;5.470;2023-04-16T04:05:56;9.00;75.60
78619;DHT22;67941;52.506;5.470;2023-04-16T04:08:28;9.00;75.60
78619;DHT22;67941;52.506;5.470;2023-04-16T04:10:57;9.00;75.60
78619;DHT22;67941;52.506;5.470;2023-04-16T04:13:26;9.00;75.70
78619;DHT22;67941;52.506;5.470;2023-04-16T04:15:58;9.00;75.70
78619;DHT22;67941;52.506;5.470;2023-04-16T04:18:28;9.00;75.70
78619;DHT22;67941;52.506;5.470;2023-04-16T04:20:58;9.00;75.70
78619;DHT22;67941;52.506;5.470;2023-04-16T04:23:29;9.00;75.70
78619;DHT22;67941;52.506;5.470;2023-04-16T04:25:58;9.00;75.70
78619;DHT22;67941;52.506;5.470;2023-04-16T04:28:28;9.00;75.70
78619;DHT22;67941;52.506;5.470;2023-04-16T04:31:00;9.00;75.70
78619;DHT22;67941;52.506;5.470;2023-04-16T04:33:30;9.00;75.70
78619;DHT22;67941;52.506;5.470;2023-04-16T04:35:59;9.00;75.70
78619;DHT22;67941;52.506;5.470;2023-04-16T04:38:28;9.00;75.80
78619;DHT22;67941;52.506;5.470;2023-04-16T04:40:58;9.00;75.80
78619;DHT22;67941;52.506;5.470;2023-04-16T04:43:31;9.00;75.80
78619;DHT22;67941;52.506;5.470;2023-04-16T04:46:03;9.00;75.90
78619;DHT22;67941;52.506;5.470;2023-04-16T04:48:32;9.00;75.90
78619;DHT22;67941;52.506;5.470;2023-04-16T04:51:01;9.00;75.90
78619;DHT22;67941;52.506;5.470;2023-04-16T04:53:30;9.00;75.90
78619;DHT22;67941;52.506;5.470;2023-04-16T04:55:59;9.00;75.90
78619;DHT22;67941;52.506;5.470;2023-04-16T04:58:28;9.00;76.00
78619;DHT22;67941;52.506;5.470;2023-04-16T05:00:57;9.00;76.00
78619;DHT22;67941;52.506;5.470;2023-04-16T05:03:28;9.00;76.10
78619;DHT22;67941;52.506;5.470;2023-04-16T05:05:57;9.00;76.00
78619;DHT22;67941;52.506;5.470;2023-04-16T05:08:26;9.00;76.10
78619;DHT22;67941;52.506;5.470;2023-04-16T05:10:54;9.00;76.10
78619;DHT22;67941;52.506;5.470;2023-04-16T05:13:23;9.00;76.10
78619;DHT22;67941;52.506;5.470;2023-04-16T05:15:52;9.00;76.20
78619;DHT22;67941;52.506;5.470;2023-04-16T05:18:22;9.00;76.20
78619;DHT22;67941;52.506;5.470;2023-04-16T05:20:54;9.00;76.20
78619;DHT22;67941;52.506;5.470;2023-04-16T05:23:23;9.00;76.30
78619;DHT22;67941;52.506;5.470;2023-04-16T05:25:52;9.00;76.20
78619;DHT22;67941;52.506;5.470;2023-04-16T05:28:21;9.00;76.30
78619;DHT22;67941;52.506;5.470;2023-04-16T05:30:50;9.00;76.30
78619;DHT22;67941;52.506;5.470;2023-04-16T05:33:19;9.00;76.30
78619;DHT22;67941;52.506;5.470;2023-04-16T05:35:48;9.00;76.40
78619;DHT22;67941;52.506;5.470;2023-04-16T05:38:19;9.00;76.30
78619;DHT22;67941;52.506;5.470;2023-04-16T05:40:48;9.00;76.40
78619;DHT22;67941;52.506;5.470;2023-04-16T05:43:17;9.00;76.40
78619;DHT22;67941;52.506;5.470;2023-04-16T05:45:46;9.00;76.40
78619;DHT22;67941;52.506;5.470;2023-04-16T05:48:14;9.00;76.40
78619;DHT22;67941;52.506;5.470;2023-04-16T05:50:44;9.00;76.40
78619;DHT22;67941;52.506;5.470;2023-04-16T05:53:13;9.00;76.40
78619;DHT22;67941;52.506;5.470;2023-04-16T05:55:46;9.00;76.40
78619;DHT22;67941;52.506;5.470;2023-04-16T05:58:15;9.10;76.40
78619;DHT22;67941;52.506;5.470;2023-04-16T06:00:44;9.10;76.40
78619;DHT22;67941;52.506;5.470;2023-04-16T06:03:13;9.10;76.40
78619;DHT22;67941;52.506;5.470;2023-04-16T06:05:42;9.10;76.40
78619;DHT22;67941;52.506;5.470;2023-04-16T06:08:10;9.20;76.50
78619;DHT22;67941;52.506;5.470;2023-04-16T06:10:39;9.10;76.40
78619;DHT22;67941;52.506;5.470;2023-04-16T06:13:11;9.20;76.40
78619;DHT22;67941;52.506;5.470;2023-04-16T06:15:40;9.20;76.40
78619;DHT22;67941;52.506;5.470;2023-04-16T06:18:09;9.20;76.40
78619;DHT22;67941;52.506;5.470;2023-04-16T06:20:38;9.20;76.50
78619;DHT22;67941;52.506;5.470;2023-04-16T06:23:07;9.20;76.40
78619;DHT22;67941;52.506;5.470;2023-04-16T06:25:38;9.20;76.40
78619;DHT22;67941;52.506;5.470;2023-04-16T06:28:09;9.20;76.50
78619;DHT22;67941;52.506;5.470;2023-04-16T06:30:38;9.20;76.50
78619;DHT22;67941;52.506;5.470;2023-04-16T06:33:07;9.20;76.50
78619;DHT22;67941;52.506;5.470;2023-04-16T06:35:36;9.30;76.50
78619;DHT22;67941;52.506;5.470;2023-04-16T06:38:05;9.30;76.50
78619;DHT22;67941;52.506;5.470;2023-04-16T06:40:34;9.30;76.50
78619;DHT22;67941;52.506;5.470;2023-04-16T06:43:03;9.30;76.50
78619;DHT22;67941;52.506;5.470;2023-04-16T06:45:35;9.40;76.50
78619;DHT22;67941;52.506;5.470;2023-04-16T06:48:04;9.40;76.40
78619;DHT22;67941;52.506;5.470;2023-04-16T06:50:33;9.40;76.50
78619;DHT22;67941;52.506;5.470;2023-04-16T06:53:02;9.40;76.50
78619;DHT22;67941;52.506;5.470;2023-04-16T06:55:31;9.40;76.50
78619;DHT22;67941;52.506;5.470;2023-04-16T06:58:00;9.40;76.50
78619;DHT22;67941;52.506;5.470;2023-04-16T07:00:29;9.40;76.50
78619;DHT22;67941;52.506;5.470;2023-04-16T07:03:00;9.40;76.50
78619;DHT22;67941;52.506;5.470;2023-04-16T07:05:29;9.50;76.50
78619;DHT22;67941;52.506;5.470;2023-04-16T07:07:58;9.50;76.50
78619;DHT22;67941;52.506;5.470;2023-04-16T07:10:27;9.50;76.50
78619;DHT22;67941;52.506;5.470;2023-04-16T07:12:56;9.50;76.40
78619;DHT22;67941;52.506;5.470;2023-04-16T07:15:26;9.50;76.50
78619;DHT22;67941;52.506;5.470;2023-04-16T07:17:55;9.50;76.50
78619;DHT22;67941;52.506;5.470;2023-04-16T07:20:26;9.60;76.40
78619;DHT22;67941;52.506;5.470;2023-04-16T07:22:55;9.60;76.40
78619;DHT22;67941;52.506;5.470;2023-04-16T07:25:24;9.60;76.50
78619;DHT22;67941;52.506;5.470;2023-04-16T07:27:53;9.60;76.40
78619;DHT22;67941;52.506;5.470;2023-04-16T07:30:22;9.60;76.40
78619;DHT22;67941;52.506;5.470;2023-04-16T07:32:57;9.60;76.50
78619;DHT22;67941;52.506;5.470;2023-04-16T07:35:28;9.60;76.40
78619;DHT22;67941;52.506;5.470;2023-04-16T07:37:57;9.70;76.40
78619;DHT22;67941;52.506;5.470;2023-04-16T07:40:26;9.70;76.50
78619;DHT22;67941;52.506;5.470;2023-04-16T07:42:55;9.70;76.40
78619;DHT22;67941;52.506;5.470;2023-04-16T07:45:24;9.80;76.50
78619;DHT22;67941;52.506;5.470;2023-04-16T07:47:52;9.80;76.50
78619;DHT22;67941;52.506;5.470;2023-04-16T07:50:21;9.90;76.40
78619;DHT22;67941;52.506;5.470;2023-04-16T07:52:53;9.90;76.30
78619;DHT22;67941;52.506;5.470;2023-04-16T07:55:22;9.90;76.30
78619;DHT22;67941;52.506;5.470;2023-04-16T07:57:50;10.00;76.20
78619;DHT22;67941;52.506;5.470;2023-04-16T08:00:19;9.90;76.20
78619;DHT22;67941;52.506;5.470;2023-04-16T08:02:48;9.90;76.20
78619;DHT22;67941;52.506;5.470;2023-04-16T08:05:17;9.90;76.20
78619;DHT22;67941;52.506;5.470;2023-04-16T08:07:46;10.00;76.30
78619;DHT22;67941;52.506;5.470;2023-04-16T08:10:17;10.00;76.20
78619;DHT22;67941;52.506;5.470;2023-04-16T08:12:46;10.00;76.20
78619;DHT22;67941;52.506;5.470;2023-04-16T08:15:15;10.00;76.20
78619;DHT22;67941;52.506;5.470;2023-04-16T08:17:44;10.00;76.20
78619;DHT22;67941;52.506;5.470;2023-04-16T08:20:13;10.00;76.10
78619;DHT22;67941;52.506;5.470;2023-04-16T08:22:42;10.00;76.10
78619;DHT22;67941;52.506;5.470;2023-04-16T08:25:11;10.00;76.20
78619;DHT22;67941;52.506;5.470;2023-04-16T08:27:43;10.00;76.20
78619;DHT22;67941;52.506;5.470;2023-04-16T08:30:12;10.00;76.20
78619;DHT22;67941;52.506;5.470;2023-04-16T08:32:41;10.00;76.20
78619;DHT22;67941;52.506;5.470;2023-04-16T08:35:10;10.00;76.20
78619;DHT22;67941;52.506;5.470;2023-04-16T08:37:39;10.00;76.10
78619;DHT22;67941;52.506;5.470;2023-04-16T08:40:09;10.00;76.10
78619;DHT22;67941;52.506;5.470;2023-04-16T08:42:43;10.00;76.00
78619;DHT22;67941;52.506;5.470;2023-04-16T08:45:14;10.00;76.10
78619;DHT22;67941;52.506;5.470;2023-04-16T08:47:46;10.00;76.10
78619;DHT22;67941;52.506;5.470;2023-04-16T08:50:15;10.10;76.20
78619;DHT22;67941;52.506;5.470;2023-04-16T08:52:49;10.10;76.30
78619;DHT22;67941;52.506;5.470;2023-04-16T08:55:20;10.10;76.20
78619;DHT22;67941;52.506;5.470;2023-04-16T08:57:56;10.10;76.10
78619;DHT22;67941;52.506;5.470;2023-04-16T09:00:25;10.20;76.20
78619;DHT22;67941;52.506;5.470;2023-04-16T09:02:56;10.20;76.20
78619;DHT22;67941;52.506;5.470;2023-04-16T09:05:26;10.20;76.10
78619;DHT22;67941;52.506;5.470;2023-04-16T09:07:56;10.20;76.10
78619;DHT22;67941;52.506;5.470;2023-04-16T09:10:26;10.30;76.10
78619;DHT22;67941;52.506;5.470;2023-04-16T09:12:57;10.30;76.20
78619;DHT22;67941;52.506;5.470;2023-04-16T09:15:26;10.30;76.20
78619;DHT22;67941;52.506;5.470;2023-04-16T09:17:55;10.40;76.10
78619;DHT22;67941;52.506;5.470;2023-04-16T09:20:24;10.40;76.10
78619;DHT22;67941;52.506;5.470;2023-04-16T09:22:53;10.40;76.00
78619;DHT22;67941;52.506;5.470;2023-04-16T09:25:22;10.40;76.10
78619;DHT22;67941;52.506;5.470;2023-04-16T09:27:52;10.40;76.20
78619;DHT22;67941;52.506;5.470;2023-04-16T09:30:25;10.50;76.20
78619;DHT22;67941;52.506;5.470;2023-04-16T09:33:13;10.60;76.20
78619;DHT22;67941;52.506;5.470;2023-04-16T09:35:47;10.70;76.20
78619;DHT22;67941;52.506;5.470;2023-04-16T09:38:17;10.80;76.10
78619;DHT22;67941;52.506;5.470;2023-04-16T09:40:46;10.90;75.90
78619;DHT22;67941;52.506;5.470;2023-04-16T09:43:16;10.80;75.80
78619;DHT22;67941;52.506;5.470;2023-04-16T09:45:52;10.80;75.80
78619;DHT22;67941;52.506;5.470;2023-04-16T09:48:27;10.80;75.90
78619;DHT22;67941;52.506;5.470;2023-04-16T09:50:57;10.90;75.90
78619;DHT22;67941;52.506;5.470;2023-04-16T09:53:27;10.90;75.70
78619;DHT22;67941;52.506;5.470;2023-04-16T09:55:57;10.80;75.70
78619;DHT22;67941;52.506;5.470;2023-04-16T09:58:26;10.80;75.60
78619;DHT22;67941;52.506;5.470;2023-04-16T10:01:00;10.80;75.70
78619;DHT22;67941;52.506;5.470;2023-04-16T10:03:29;10.80;75.70
78619;DHT22;67941;52.506;5.470;2023-04-16T10:05:59;10.80;75.80
78619;DHT22;67941;52.506;5.470;2023-04-16T10:08:29;10.80;75.80
78619;DHT22;67941;52.506;5.470;2023-04-16T10:10:58;10.80;75.70
78619;DHT22;67941;52.506;5.470;2023-04-16T10:13:27;10.90;75.70
78619;DHT22;67941;52.506;5.470;2023-04-16T10:15:59;10.90;75.70
78619;DHT22;67941;52.506;5.470;2023-04-16T10:18:28;10.90;75.70
78619;DHT22;67941;52.506;5.470;2023-04-16T10:20:58;11.00;75.70
78619;DHT22;67941;52.506;5.470;2023-04-16T10:23:27;11.10;75.70
78619;DHT22;67941;52.506;5.470;2023-04-16T10:25:56;11.10;75.60
78619;DHT22;67941;52.506;5.470;2023-04-16T10:28:25;11.10;75.50
78619;DHT22;67941;52.506;5.470;2023-04-16T10:30:58;11.10;75.50
78619;DHT22;67941;52.506;5.470;2023-04-16T10:33:30;11.10;75.50
78619;DHT22;67941;52.506;5.470;2023-04-16T10:36:09;11.20;75.60
78619;DHT22;67941;52.506;5.470;2023-04-16T10:38:39;11.30;75.60
78619;DHT22;67941;52.506;5.470;2023-04-16T10:41:08;11.40;75.50
78619;DHT22;67941;52.506;5.470;2023-04-16T10:43:42;11.50;75.50
78619;DHT22;67941;52.506;5.470;2023-04-16T10:46:24;11.50;75.40
78619;DHT22;67941;52.506;5.470;2023-04-16T10:48:55;11.60;75.30
78619;DHT22;67941;52.506;5.470;2023-04-16T10:51:27;11.60;75.20
78619;DHT22;67941;52.506;5.470;2023-04-16T10:53:57;11.70;75.20
78619;DHT22;67941;52.506;5.470;2023-04-16T10:56:32;11.70;75.10
78619;DHT22;67941;52.506;5.470;2023-04-16T10:59:03;11.70;75.10
78619;DHT22;67941;52.506;5.470;2023-04-16T11:01:36;11.70;75.00
78619;DHT22;67941;52.506;5.470;2023-04-16T11:04:27;11.70;75.20
78619;DHT22;67941;52.506;5.470;2023-04-16T11:07:01;11.70;75.20
78619;DHT22;67941;52.506;5.470;2023-04-16T11:10:02;11.70;75.20
78619;DHT22;67941;52.506;5.470;2023-04-16T11:12:33;11.70;75.20
78619;DHT22;67941;52.506;5.470;2023-04-16T11:15:04;11.70;75.00
78619;DHT22;67941;52.506;5.470;2023-04-16T11:17:39;11.70;75.00
78619;DHT22;67941;52.506;5.470;2023-04-16T11:20:14;11.70;74.90
78619;DHT22;67941;52.506;5.470;2023-04-16T11:22:44;11.70;74.80
78619;DHT22;67941;52.506;5.470;2023-04-16T11:25:14;11.70;74.80
78619;DHT22;67941;52.506;5.470;2023-04-16T11:27:46;11.70;74.90
78619;DHT22;67941;52.506;5.470;2023-04-16T11:30:16;11.70;75.00
78619;DHT22;67941;52.506;5.470;2023-04-16T11:32:48;11.80;75.10
78619;DHT22;67941;52.506;5.470;2023-04-16T11:35:18;11.90;75.10
78619;DHT22;67941;52.506;5.470;2023-04-16T11:37:47;12.00;75.10
78619;DHT22;67941;52.506;5.470;2023-04-16T11:40:15;12.10;75.00
78619;DHT22;67941;52.506;5.470;2023-04-16T11:42:44;12.20;74.70
78619;DHT22;67941;52.506;5.470;2023-04-16T11:45:13;12.30;74.60
78619;DHT22;67941;52.506;5.470;2023-04-16T11:47:45;12.20;74.50
78619;DHT22;67941;52.506;5.470;2023-04-16T11:50:22;12.20;74.70
78619;DHT22;67941;52.506;5.470;2023-04-16T11:52:53;12.30;74.60
78619;DHT22;67941;52.506;5.470;2023-04-16T11:55:22;12.30;74.80
78619;DHT22;67941;52.506;5.470;2023-04-16T11:57:51;12.30;74.70
78619;DHT22;67941;52.506;5.470;2023-04-16T12:00:20;12.40;74.50
78619;DHT22;67941;52.506;5.470;2023-04-16T12:02:50;12.40;74.40
78619;DHT22;67941;52.506;5.470;2023-04-16T12:05:30;12.30;74.20
78619;DHT22;67941;52.506;5.470;2023-04-16T12:08:01;12.30;74.30
78619;DHT22;67941;52.506;5.470;2023-04-16T12:10:32;12.20;74.40
78619;DHT22;67941;52.506;5.470;2023-04-16T12:13:09;12.20;74.40
78619;DHT22;67941;52.506;5.470;2023-04-16T12:15:45;12.20;74.30
78619;DHT22;67941;52.506;5.470;2023-04-16T12:18:14;12.20;74.20
78619;DHT22;67941;52.506;5.470;2023-04-16T12:20:46;12.10;74.10
78619;DHT22;67941;52.506;5.470;2023-04-16T12:23:23;12.00;74.20
78619;DHT22;67941;52.506;5.470;2023-04-16T12:25:52;12.00;74.30
78619;DHT22;67941;52.506;5.470;2023-04-16T12:28:28;12.00;74.20
78619;DHT22;67941;52.506;5.470;2023-04-16T12:30:58;12.00;74.10
78619;DHT22;67941;52.506;5.470;2023-04-16T12:33:27;12.00;74.20
78619;DHT22;67941;52.506;5.470;2023-04-16T12:35:59;12.00;74.20
78619;DHT22;67941;52.506;5.470;2023-04-16T12:38:29;12.00;74.10
78619;DHT22;67941;52.506;5.470;2023-04-16T12:40:58;12.00;74.10
78619;DHT22;67941;52.506;5.470;2023-04-16T12:43:27;12.10;74.20
78619;DHT22;67941;52.506;5.470;2023-04-16T12:45:55;12.10;74.10
78619;DHT22;67941;52.506;5.470;2023-04-16T12:48:24;12.20;74.00
78619;DHT22;67941;52.506;5.470;2023-04-16T12:50:53;12.20;74.00
78619;DHT22;67941;52.506;5.470;2023-04-16T12:53:25;12.30;74.00
78619;DHT22;67941;52.506;5.470;2023-04-16T12:55:54;12.50;74.10
78619;DHT22;67941;52.506;5.470;2023-04-16T12:58:23;12.50;73.90
78619;DHT22;67941;52.506;5.470;2023-04-16T13:00:51;12.70;73.90
78619;DHT22;67941;52.506;5.470;2023-04-16T13:03:21;12.80;73.70
78619;DHT22;67941;52.506;5.470;2023-04-16T13:05:49;12.90;73.80
78619;DHT22;67941;52.506;5.470;2023-04-16T13:08:18;12.90;73.50
78619;DHT22;67941;52.506;5.470;2023-04-16T13:10:50;13.00;73.50
78619;DHT22;67941;52.506;5.470;2023-04-16T13:13:19;13.10;73.40
78619;DHT22;67941;52.506;5.470;2023-04-16T13:15:47;13.10;73.30
78619;DHT22;67941;52.506;5.470;2023-04-16T13:18:16;13.30;73.10
78619;DHT22;67941;52.506;5.470;2023-04-16T13:20:45;13.20;72.80
78619;DHT22;67941;52.506;5.470;2023-04-16T13:23:14;13.10;72.80
78619;DHT22;67941;52.506;5.470;2023-04-16T13:25:43;13.10;72.80
78619;DHT22;67941;52.506;5.470;2023-04-16T13:28:14;13.00;72.70
78619;DHT22;67941;52.506;5.470;2023-04-16T13:30:43;12.90;72.60
78619;DHT22;67941;52.506;5.470;2023-04-16T13:33:12;12.80;72.60
78619;DHT22;67941;52.506;5.470;2023-04-16T13:35:41;12.70;72.60
78619;DHT22;67941;52.506;5.470;2023-04-16T13:38:10;12.60;72.60
78619;DHT22;67941;52.506;5.470;2023-04-16T13:40:39;12.50;72.60
78619;DHT22;67941;52.506;5.470;2023-04-16T13:43:08;12.50;72.70
78619;DHT22;67941;52.506;5.470;2023-04-16T13:45:41;12.50;72.80
78619;DHT22;67941;52.506;5.470;2023-04-16T13:48:10;12.40;72.70
78619;DHT22;67941;52.506;5.470;2023-04-16T13:50:38;12.40;72.80
78619;DHT22;67941;52.506;5.470;2023-04-16T13:53:07;12.40;72.80
78619;DHT22;67941;52.506;5.470;2023-04-16T13:55:36;12.50;72.90
78619;DHT22;67941;52.506;5.470;2023-04-16T13:58:05;12.50;72.90
78619;DHT22;67941;52.506;5.470;2023-04-16T14:00:36;12.60;72.80
78619;DHT22;67941;52.506;5.470;2023-04-16T14:03:07;12.70;72.70
78619;DHT22;67941;52.506;5.470;2023-04-16T14:05:36;12.70;72.50
78619;DHT22;67941;52.506;5.470;2023-04-16T14:08:06;12.70;72.40
78619;DHT22;67941;52.506;5.470;2023-04-16T14:10:53;12.50;72.30
78619;DHT22;67941;52.506;5.470;2023-04-16T14:13:23;12.50;72.40
78619;DHT22;67941;52.506;5.470;2023-04-16T14:15:52;12.50;72.40
78619;DHT22;67941;52.506;5.470;2023-04-16T14:18:24;12.30;72.50
78619;DHT22;67941;52.506;5.470;2023-04-16T14:20:53;12.40;72.80
78619;DHT22;67941;52.506;5.470;2023-04-16T14:23:22;12.50;72.70
78619;DHT22;67941;52.506;5.470;2023-04-16T14:25:51;12.50;72.60
78619;DHT22;67941;52.506;5.470;2023-04-16T14:28:21;12.50;72.60
78619;DHT22;67941;52.506;5.470;2023-04-16T14:30:49;12.50;72.60
78619;DHT22;67941;52.506;5.470;2023-04-16T14:33:18;12.50;72.50
78619;DHT22;67941;52.506;5.470;2023-04-16T14:35:53;12.50;72.40
78619;DHT22;67941;52.506;5.470;2023-04-16T14:38:22;12.50;72.30
78619;DHT22;67941;52.506;5.470;2023-04-16T14:40:51;12.50;72.20
78619;DHT22;67941;52.506;5.470;2023-04-16T14:43:20;12.40;72.20
78619;DHT22;67941;52.506;5.470;2023-04-16T14:45:49;12.30;72.10
78619;DHT22;67941;52.506;5.470;2023-04-16T14:48:18;12.20;72.20
78619;DHT22;67941;52.506;5.470;2023-04-16T14:50:46;12.10;72.30
78619;DHT22;67941;52.506;5.470;2023-04-16T14:53:18;12.10;72.30
78619;DHT22;67941;52.506;5.470;2023-04-16T14:55:47;12.10;72.50
78619;DHT22;67941;52.506;5.470;2023-04-16T14:58:16;12.20;72.30
78619;DHT22;67941;52.506;5.470;2023-04-16T15:00:45;12.20;72.30
78619;DHT22;67941;52.506;5.470;2023-04-16T15:03:14;12.20;72.20
78619;DHT22;67941;52.506;5.470;2023-04-16T15:05:42;12.20;72.20
78619;DHT22;67941;52.506;5.470;2023-04-16T15:08:18;12.10;72.20
78619;DHT22;67941;52.506;5.470;2023-04-16T15:10:46;12.00;72.10
78619;DHT22;67941;52.506;5.470;2023-04-16T15:13:15;11.90;72.20
78619;DHT22;67941;52.506;5.470;2023-04-16T15:15:44;11.90;72.30
78619;DHT22;67941;52.506;5.470;2023-04-16T15:18:13;11.90;72.40
78619;DHT22;67941;52.506;5.470;2023-04-16T15:20:42;11.90;72.30
78619;DHT22;67941;52.506;5.470;2023-04-16T15:23:11;11.90;72.30
78619;DHT22;67941;52.506;5.470;2023-04-16T15:25:42;11.80;72.30
78619;DHT22;67941;52.506;5.470;2023-04-16T15:28:11;11.80;72.30
78619;DHT22;67941;52.506;5.470;2023-04-16T15:30:41;11.70;72.30
78619;DHT22;67941;52.506;5.470;2023-04-16T15:33:10;11.70;72.20
78619;DHT22;67941;52.506;5.470;2023-04-16T15:35:39;11.60;72.20
78619;DHT22;67941;52.506;5.470;2023-04-16T15:38:08;11.50;72.30
78619;DHT22;67941;52.506;5.470;2023-04-16T15:40:37;11.50;72.30
78619;DHT22;67941;52.506;5.470;2023-04-16T15:43:09;11.50;72.40
78619;DHT22;67941;52.506;5.470;2023-04-16T15:45:37;11.50;72.50
78619;DHT22;67941;52.506;5.470;2023-04-16T15:48:06;11.50;72.40
78619;DHT22;67941;52.506;5.470;2023-04-16T15:50:35;11.40;72.40
78619;DHT22;67941;52.506;5.470;2023-04-16T15:53:04;11.40;72.40
78619;DHT22;67941;52.506;5.470;2023-04-16T15:55:33;11.40;72.40